Brewster, Massachusetts
Current Conditions -  °F | °C
As of 10:52 AM on Thursday 23 Oct 2014 (Local Time) from KCQX Reporting Station
Overcast Overcast  
Wind Chill: 59°   Ceiling: 2100
Heat Index: 59°   Visibility: 10mi
Dew Point: 57°   Wind: 6mph
Humidity: 93%   Direction: 40°NE
Pressure: 29.55"   Gusts: NA
Location:  41.76°N, 70.08°W
Report Text: KCQX 231452Z AUTO 04005KT 10SM OVC021 15/14 A2955 RMK AO2 RAE43 SLP008 P0001 60001 T01500139 50003
Loading
Personal Weather Stations






























Interactive Weather Map
Tropical Storm Tracking
New forecast layout! Learn more

10-Day Weather Forecast

Advertisements
Track Severe Weather on mobile